Time;durP1;ratioP1;P1;durP2;ratioP2;P2;SDS_P1;SDS_P2;PMS_P1;PMS_P2;Temp;Humidity;BMP_temperature;BMP_pressure;BME280_temperature;BME280_humidity;BME280_pressure;Samples;Min_cycle;Max_cycle;Signal;HPM_P1;HPM_P2
2022/01/26 00:06:24;;;;;;;;;;;;;;;;;;5092426;28;631;-73
2022/01/26 00:08:50;;;;;;;;;;;;;;;;;;5092321;28;841;-73
2022/01/26 00:11:15;;;;;;;;;;;;;;;;;;5077388;28;903;-77
2022/01/26 00:13:40;;;;;;;;;;;;;;;;;;5095673;28;1038;-78
2022/01/26 00:16:11;;;;;;;;;;;;;;;;;;5078047;28;1981;-77
2022/01/26 00:18:38;;;;;;;;;;;;;;;;;;5096224;28;877;-77
2022/01/26 00:21:24;;;;;;;;;;;;;;;;;;5096291;28;832;-77
2022/01/26 00:24:06;;;;;;;;;;;;;;;;;;5095464;28;1668;-77
2022/01/26 00:29:08;;;;;;;;;;;;;;;;;;5095783;28;1008;-77
2022/01/26 00:40:00;;;;;;;;;;;;;;;;;;5095305;28;916;-77
2022/01/26 00:42:31;;;;;;;;;;;;;;;;;;5095436;28;821;-77
2022/01/26 00:44:56;;;;;;;;;;;;;;;;;;5094785;28;885;-77
2022/01/26 00:47:21;;;;;;;;;;;;;;;;;;5095343;28;1103;-77
2022/01/26 00:49:47;;;;;;;;;;;;;;;;;;5094910;28;883;-76
2022/01/26 00:52:17;;;;;;;;;;;;;;;;;;5095364;28;837;-77
2022/01/26 00:54:42;;;;;;;;;;;;;;;;;;5094902;28;979;-77
2022/01/26 00:57:07;;;;;;;;;;;;;;;;;;5094764;28;1983;-77
2022/01/26 00:59:33;;;;;;;;;;;;;;;;;;5094440;28;1050;-77
2022/01/26 01:01:58;;;;;;;;;;;;;;;;;;5094921;28;786;-77
2022/01/26 01:04:24;;;;;;;;;;;;;;;;;;5095039;28;908;-76
2022/01/26 01:06:55;;;;;;;;;;;;;;;;;;5076801;28;1306;-74
2022/01/26 01:09:23;;;;;;;;;;;;;;;;;;5094533;28;885;-74
2022/01/26 01:11:55;;;;;;;;;;;;;;;;;;5094247;28;1108;-73
2022/01/26 01:14:21;;;;;;;;;;;;;;;;;;5094274;28;813;-73
2022/01/26 01:16:46;;;;;;;;;;;;;;;;;;5093870;28;2327;-74
2022/01/26 01:19:29;;;;;;;;;;;;;;;;;;5094125;28;834;-73
2022/01/26 01:30:01;;;;;;;;;;;;;;;;;;5093680;28;730;-73
2022/01/26 01:32:39;;;;;;;;;;;;;;;;;;5093452;28;1597;-77
2022/01/26 01:35:09;;;;;;;;;;;;;;;;;;5093872;28;888;-77
2022/01/26 01:37:34;;;;;;;;;;;;;;;;;;5093614;28;832;-77
2022/01/26 01:39:59;;;;;;;;;;;;;;;;;;5094458;28;907;-77
2022/01/26 01:42:25;;;;;;;;;;;;;;;;;;5075873;28;920;-77
2022/01/26 01:44:51;;;;;;;;;;;;;;;;;;5094192;28;810;-77
2022/01/26 01:47:16;;;;;;;;;;;;;;;;;;5074149;28;1326;-77
2022/01/26 01:49:41;;;;;;;;;;;;;;;;;;5092183;28;1140;-77
2022/01/26 01:52:13;;;;;;;;;;;;;;;;;;5093396;28;1228;-77
2022/01/26 01:54:40;;;;;;;;;;;;;;;;;;5075847;28;919;-78
2022/01/26 01:57:05;;;;;;;;;;;;;;;;;;5076162;28;1905;-77
2022/01/26 01:59:32;;;;;;;;;;;;;;;;;;5094337;28;813;-78
2022/01/26 02:01:58;;;;;;;;;;;;;;;;;;5093990;28;919;-78
2022/01/26 02:04:24;;;;;;;;;;;;;;;;;;5094484;28;884;-78
2022/01/26 02:06:49;;;;;;;;;;;;;;;;;;5094231;28;892;-78
2022/01/26 02:09:14;;;;;;;;;;;;;;;;;;5094003;28;962;-78
2022/01/26 02:12:01;;;;;;;;;;;;;;;;;;5076099;28;892;-77
2022/01/26 02:14:34;;;;;;;;;;;;;;;;;;5094064;28;917;-72
2022/01/26 02:50:15;;;;;;;;;;;;;;;;;;5092322;28;651;-76
2022/01/26 02:55:22;;;;;;;;;;;;;;;;;;5091955;28;714;-75
2022/01/26 03:02:53;;;;;;;;;;;;;;;;;;5092624;28;891;-75
2022/01/26 03:05:21;;;;;;;;;;;;;;;;;;5074065;28;1330;-74
2022/01/26 03:08:01;;;;;;;;;;;;;;;;;;5091887;28;888;-74
2022/01/26 03:12:59;;;;;;;;;;;;;;;;;;5091860;28;947;-75
2022/01/26 03:15:34;;;;;;;;;;;;;;;;;;5057850;28;1910;-74
2022/01/26 03:20:45;;;;;;;;;;;;;;;;;;5092326;28;671;-74
2022/01/26 03:29:09;;;;;;;;;;;;;;;;;;5093139;28;807;-79
2022/01/26 03:34:14;;;;;;;;;;;;;;;;;;5092869;28;648;-79
2022/01/26 03:37:01;;;;;;;;;;;;;;;;;;5091955;28;1909;-79
2022/01/26 03:39:28;;;;;;;;;;;;;;;;;;5092033;28;829;-79
2022/01/26 03:42:14;;;;;;;;;;;;;;;;;;5091872;28;1117;-79
2022/01/26 03:44:40;;;;;;;;;;;;;;;;;;5075462;28;1331;-79
2022/01/26 03:47:06;;;;;;;;;;;;;;;;;;5078076;28;1235;-79
2022/01/26 03:49:31;;;;;;;;;;;;;;;;;;5095937;28;942;-79
2022/01/26 03:51:57;;;;;;;;;;;;;;;;;;5077923;28;876;-79
2022/01/26 03:54:24;;;;;;;;;;;;;;;;;;5096022;28;915;-79
2022/01/26 03:56:49;;;;;;;;;;;;;;;;;;5095470;28;1964;-78
2022/01/26 03:59:15;;;;;;;;;;;;;;;;;;5095607;28;852;-78
2022/01/26 04:01:40;;;;;;;;;;;;;;;;;;5095586;28;855;-79
2022/01/26 04:04:09;;;;;;;;;;;;;;;;;;5095735;28;841;-79
2022/01/26 04:06:34;;;;;;;;;;;;;;;;;;5096071;28;871;-77
2022/01/26 04:09:01;;;;;;;;;;;;;;;;;;5096027;28;864;-79
2022/01/26 04:13:52;;;;;;;;;;;;;;;;;;5095786;28;959;-78
2022/01/26 04:16:18;;;;;;;;;;;;;;;;;;5095278;28;1968;-77
2022/01/26 04:18:43;;;;;;;;;;;;;;;;;;5095708;28;1176;-79
2022/01/26 04:23:55;;;;;;;;;;;;;;;;;;5095534;28;890;-79
2022/01/26 04:26:26;;;;;;;;;;;;;;;;;;5095938;28;1083;-77
2022/01/26 04:28:58;;;;;;;;;;;;;;;;;;5095432;28;825;-79
2022/01/26 04:31:23;;;;;;;;;;;;;;;;;;5095480;28;972;-79
2022/01/26 04:33:50;;;;;;;;;;;;;;;;;;5094898;28;1096;-79
2022/01/26 04:36:22;;;;;;;;;;;;;;;;;;5095345;28;1980;-78
2022/01/26 04:38:52;;;;;;;;;;;;;;;;;;5095558;28;1000;-79
2022/01/26 04:43:49;;;;;;;;;;;;;;;;;;5095814;28;848;-78
2022/01/26 04:46:14;;;;;;;;;;;;;;;;;;5095444;28;895;-78
2022/01/26 04:48:39;;;;;;;;;;;;;;;;;;5077187;28;1247;-78
2022/01/26 04:51:05;;;;;;;;;;;;;;;;;;5095312;28;828;-78
2022/01/26 04:53:30;;;;;;;;;;;;;;;;;;5095391;28;872;-78
2022/01/26 04:55:55;;;;;;;;;;;;;;;;;;5094408;28;1941;-78
2022/01/26 04:58:21;;;;;;;;;;;;;;;;;;5093555;28;1160;-73
2022/01/26 05:00:46;;;;;;;;;;;;;;;;;;5094441;28;1018;-72
2022/01/26 05:03:11;;;;;;;;;;;;;;;;;;5094392;28;978;-73
2022/01/26 05:05:37;;;;;;;;;;;;;;;;;;5094593;28;797;-73
2022/01/26 05:08:02;;;;;;;;;;;;;;;;;;5094191;28;908;-73
2022/01/26 05:10:28;;;;;;;;;;;;;;;;;;5093816;28;1046;-73
2022/01/26 05:12:56;;;;;;;;;;;;;;;;;;5075887;28;1361;-74
2022/01/26 05:15:24;;;;;;;;;;;;;;;;;;5094366;28;1906;-74
2022/01/26 05:17:49;;;;;;;;;;;;;;;;;;5094150;28;1270;-73
2022/01/26 05:20:15;;;;;;;;;;;;;;;;;;5076085;28;774;-73
2022/01/26 05:22:41;;;;;;;;;;;;;;;;;;5075498;28;1133;-73
2022/01/26 05:25:07;;;;;;;;;;;;;;;;;;5093620;28;901;-74
2022/01/26 05:27:32;;;;;;;;;;;;;;;;;;5075631;28;1200;-72
2022/01/26 05:29:58;;;;;;;;;;;;;;;;;;5093965;28;844;-72
2022/01/26 05:32:24;;;;;;;;;;;;;;;;;;5075752;28;1391;-73
2022/01/26 05:34:49;;;;;;;;;;;;;;;;;;5075925;28;857;-73
2022/01/26 05:37:14;;;;;;;;;;;;;;;;;;5075643;28;1908;-73
2022/01/26 05:39:40;;;;;;;;;;;;;;;;;;5093213;28;1266;-73
2022/01/26 05:42:06;;;;;;;;;;;;;;;;;;5093689;28;835;-73
2022/01/26 05:44:31;;;;;;;;;;;;;;;;;;5093710;28;832;-73
2022/01/26 05:46:57;;;;;;;;;;;;;;;;;;5093548;28;840;-73
2022/01/26 05:49:22;;;;;;;;;;;;;;;;;;5058723;28;924;-73
2022/01/26 05:51:47;;;;;;;;;;;;;;;;;;5093801;28;828;-79
2022/01/26 05:54:13;;;;;;;;;;;;;;;;;;5094487;28;1053;-79
2022/01/26 05:56:42;;;;;;;;;;;;;;;;;;5093934;28;1902;-79
2022/01/26 05:59:07;;;;;;;;;;;;;;;;;;5094359;28;904;-79
2022/01/26 06:01:33;;;;;;;;;;;;;;;;;;5094117;28;895;-79
2022/01/26 06:03:58;;;;;;;;;;;;;;;;;;5075258;28;1148;-79
2022/01/26 06:06:23;;;;;;;;;;;;;;;;;;5075257;28;1151;-79
2022/01/26 06:08:49;;;;;;;;;;;;;;;;;;5075833;28;868;-79
2022/01/26 06:11:14;;;;;;;;;;;;;;;;;;5093286;28;841;-79
2022/01/26 06:13:39;;;;;;;;;;;;;;;;;;5058419;28;1370;-79
2022/01/26 06:16:05;;;;;;;;;;;;;;;;;;5075579;28;1901;-79
2022/01/26 06:18:30;;;;;;;;;;;;;;;;;;5093847;28;825;-78
2022/01/26 06:20:55;;;;;;;;;;;;;;;;;;5074589;28;880;-78
2022/01/26 06:23:24;;;;;;;;;;;;;;;;;;5093682;28;813;-78
2022/01/26 06:25:51;;;;;;;;;;;;;;;;;;5093877;28;1044;-79
2022/01/26 06:28:16;;;;;;;;;;;;;;;;;;5075532;28;844;-78
2022/01/26 06:30:45;;;;;;;;;;;;;;;;;;5094127;28;979;-79
2022/01/26 06:33:10;;;;;;;;;;;;;;;;;;5079601;28;1188;-79
2022/01/26 06:35:35;;;;;;;;;;;;;;;;;;5038780;28;1969;-79
2022/01/26 06:38:01;;;;;;;;;;;;;;;;;;5072862;28;821;-78
2022/01/26 06:40:26;;;;;;;;;;;;;;;;;;5072927;28;1046;-79
2022/01/26 06:42:55;;;;;;;;;;;;;;;;;;5072328;28;841;-79
2022/01/26 06:45:25;;;;;;;;;;;;;;;;;;5072619;28;861;-79
2022/01/26 06:48:02;;;;;;;;;;;;;;;;;;5073230;28;865;-79
2022/01/26 06:50:27;;;;;;;;;;;;;;;;;;5072228;28;1263;-79
2022/01/26 06:52:52;;;;;;;;;;;;;;;;;;5073080;28;841;-79
2022/01/26 06:55:18;;;;;;;;;;;;;;;;;;5055341;28;1270;-79
2022/01/26 06:57:43;;;;;;;;;;;;;;;;;;5053945;28;1906;-79
2022/01/26 07:00:10;;;;;;;;;;;;;;;;;;5073193;28;894;-79
2022/01/26 07:02:37;;;;;;;;;;;;;;;;;;5072749;28;1018;-79
2022/01/26 07:05:03;;;;;;;;;;;;;;;;;;5054820;28;1215;-78
2022/01/26 07:07:28;;;;;;;;;;;;;;;;;;5072385;28;900;-74
2022/01/26 07:09:54;;;;;;;;;;;;;;;;;;5072366;28;908;-79
2022/01/26 07:12:19;;;;;;;;;;;;;;;;;;5054852;28;1277;-79
2022/01/26 07:21:11;;;;;;;;;;;;;;;;;;5060048;28;838;-78
2022/01/26 07:23:11;;;;;;;;;;;;;;;;;;5075952;28;1587;-78
2022/01/26 07:25:37;;;;;;;;;;;;;;;;;;5076243;28;945;-78
2022/01/26 07:28:04;;;;;;;;;;;;;;;;;;5058666;28;905;-79
2022/01/26 07:30:30;;;;;;;;;;;;;;;;;;5077146;28;950;-79
2022/01/26 07:32:56;;;;;;;;;;;;;;;;;;5053299;28;1354;-78
2022/01/26 07:35:21;;;;;;;;;;;;;;;;;;5097085;28;852;-78
2022/01/26 07:37:48;;;;;;;;;;;;;;;;;;5096342;28;1905;-79
2022/01/26 07:40:13;;;;;;;;;;;;;;;;;;5096293;28;864;-78
2022/01/26 07:42:39;;;;;;;;;;;;;;;;;;5096544;28;786;-79
2022/01/26 07:45:05;;;;;;;;;;;;;;;;;;5097195;28;1046;-75
2022/01/26 07:47:31;;;;;;;;;;;;;;;;;;5096280;28;896;-74
2022/01/26 07:50:01;;;;;;;;;;;;;;;;;;5078275;28;1171;-75
2022/01/26 07:52:28;;;;;;;;;;;;;;;;;;5096359;28;920;-74
2022/01/26 07:54:54;;;;;;;;;;;;;;;;;;5096614;28;860;-75
2022/01/26 07:57:20;;;;;;;;;;;;;;;;;;5099368;28;1906;-76
2022/01/26 07:59:45;;;;;;;;;;;;;;;;;;5081562;28;1116;-75
2022/01/26 08:02:10;;;;;;;;;;;;;;;;;;5099509;28;884;-75
2022/01/26 08:04:37;;;;;;;;;;;;;;;;;;5098967;28;840;-75
2022/01/26 08:07:03;;;;;;;;;;;;;;;;;;5099066;28;818;-75
2022/01/26 08:09:28;;;;;;;;;;;;;;;;;;5099954;28;1006;-74
2022/01/26 08:11:53;;;;;;;;;;;;;;;;;;5099625;28;878;-75
2022/01/26 08:14:19;;;;;;;;;;;;;;;;;;5083070;28;893;-75
2022/01/26 08:16:44;;;;;;;;;;;;;;;;;;5106851;28;1965;-74
2022/01/26 08:19:12;;;;;;;;;;;;;;;;;;5110483;28;908;-74
2022/01/26 08:21:37;;;;;;;;;;;;;;;;;;5103371;28;821;-75
2022/01/26 08:24:11;;;;;;;;;;;;;;;;;;5082514;28;1069;-74
2022/01/26 08:26:40;;;;;;;;;;;;;;;;;;5102071;28;1054;-76
2022/01/26 08:29:13;;;;;;;;;;;;;;;;;;5104460;28;887;-74
2022/01/26 08:31:38;;;;;;;;;;;;;;;;;;5105460;28;1239;-74
2022/01/26 08:34:03;;;;;;;;;;;;;;;;;;5103490;28;1303;-74
2022/01/26 08:36:29;;;;;;;;;;;;;;;;;;5103634;28;1890;-72
2022/01/26 08:38:54;;;;;;;;;;;;;;;;;;5082752;28;860;-75
2022/01/26 08:41:19;;;;;;;;;;;;;;;;;;5101638;28;1157;-75
2022/01/26 08:43:45;;;;;;;;;;;;;;;;;;5104743;28;778;-72
2022/01/26 08:46:10;;;;;;;;;;;;;;;;;;5090294;28;1188;-75
2022/01/26 08:48:35;;;;;;;;;;;;;;;;;;5103762;28;1062;-75
2022/01/26 08:51:01;;;;;;;;;;;;;;;;;;5081369;28;896;-75
2022/01/26 08:53:26;;;;;;;;;;;;;;;;;;5095746;28;844;-75
2022/01/26 08:55:51;;;;;;;;;;;;;;;;;;5095717;28;1858;-72
2022/01/26 08:58:17;;;;;;;;;;;;;;;;;;5096128;28;1240;-75
2022/01/26 09:00:43;;;;;;;;;;;;;;;;;;5076602;28;1237;-73
2022/01/26 09:03:08;;;;;;;;;;;;;;;;;;5095417;28;923;-74
2022/01/26 09:05:33;;;;;;;;;;;;;;;;;;5094841;28;888;-73
2022/01/26 09:08:00;;;;;;;;;;;;;;;;;;5076086;28;912;-73
2022/01/26 09:10:27;;;;;;;;;;;;;;;;;;5094799;28;928;-74
2022/01/26 09:12:53;;;;;;;;;;;;;;;;;;5094032;28;881;-72
2022/01/26 09:15:19;;;;;;;;;;;;;;;;;;5075811;28;1460;-73
2022/01/26 09:17:44;;;;;;;;;;;;;;;;;;5093667;28;1953;-73
2022/01/26 09:20:10;;;;;;;;;;;;;;;;;;5075849;28;860;-72
2022/01/26 09:22:36;;;;;;;;;;;;;;;;;;5094096;28;911;-73
2022/01/26 09:25:02;;;;;;;;;;;;;;;;;;5093434;28;874;-73
2022/01/26 09:27:27;;;;;;;;;;;;;;;;;;5093421;28;840;-72
2022/01/26 09:29:52;;;;;;;;;;;;;;;;;;5075520;28;912;-73
2022/01/26 09:32:18;;;;;;;;;;;;;;;;;;5058463;28;1224;-73
2022/01/26 09:34:43;;;;;;;;;;;;;;;;;;5093970;28;765;-73
2022/01/26 09:37:10;;;;;;;;;;;;;;;;;;5093624;28;1906;-73
2022/01/26 09:39:37;;;;;;;;;;;;;;;;;;5093358;28;849;-73
2022/01/26 09:42:02;;;;;;;;;;;;;;;;;;5074148;28;1268;-74
2022/01/26 09:44:29;;;;;;;;;;;;;;;;;;5074824;28;809;-74
2022/01/26 09:46:54;;;;;;;;;;;;;;;;;;5093284;28;828;-73
2022/01/26 09:49:20;;;;;;;;;;;;;;;;;;5092920;28;860;-73
2022/01/26 09:51:49;;;;;;;;;;;;;;;;;;5092447;28;903;-73
2022/01/26 09:54:16;;;;;;;;;;;;;;;;;;5093209;28;820;-73
2022/01/26 09:56:43;;;;;;;;;;;;;;;;;;5092728;28;1898;-73
2022/01/26 09:59:08;;;;;;;;;;;;;;;;;;5092430;28;1630;-73
2022/01/26 10:01:41;;;;;;;;;;;;;;;;;;5093212;28;825;-73
2022/01/26 10:04:06;;;;;;;;;;;;;;;;;;5074292;28;1570;-72
2022/01/26 10:06:32;;;;;;;;;;;;;;;;;;5092852;28;791;-73
2022/01/26 10:09:28;;;;;;;;;;;;;;;;;;5092860;28;944;-73
2022/01/26 10:17:34;;;;;;;;;;;;;;;;;;5093371;28;1909;-72
2022/01/26 10:20:00;;;;;;;;;;;;;;;;;;5092341;28;876;-74
2022/01/26 10:22:26;;;;;;;;;;;;;;;;;;5092889;28;820;-73
2022/01/26 10:25:01;;;;;;;;;;;;;;;;;;5092181;28;1018;-73
2022/01/26 10:27:34;;;;;;;;;;;;;;;;;;5074708;28;971;-73
2022/01/26 10:29:59;;;;;;;;;;;;;;;;;;5092074;28;1243;-73
2022/01/26 10:32:31;;;;;;;;;;;;;;;;;;5090576;28;1423;-73
2022/01/26 10:34:57;;;;;;;;;;;;;;;;;;5073175;28;947;-73
2022/01/26 10:37:22;;;;;;;;;;;;;;;;;;5092681;28;1976;-73
2022/01/26 10:39:51;;;;;;;;;;;;;;;;;;5092069;28;864;-72
2022/01/26 10:42:19;;;;;;;;;;;;;;;;;;5073766;28;937;-73
2022/01/26 10:44:59;;;;;;;;;;;;;;;;;;5092900;28;908;-77
2022/01/26 10:47:26;;;;;;;;;;;;;;;;;;5092892;28;852;-76
2022/01/26 10:50:31;;;;;;;;;;;;;;;;;;5092770;28;844;-75
2022/01/26 10:52:40;;;;;;;;;;;;;;;;;;5090221;28;1442;-75
2022/01/26 10:55:06;;;;;;;;;;;;;;;;;;5092109;28;1008;-75
2022/01/26 10:57:33;;;;;;;;;;;;;;;;;;5092069;28;1990;-75
2022/01/26 10:59:59;;;;;;;;;;;;;;;;;;5091983;28;824;-75
2022/01/26 11:02:28;;;;;;;;;;;;;;;;;;5090896;28;1243;-75
2022/01/26 11:04:55;;;;;;;;;;;;;;;;;;5092010;28;917;-76
2022/01/26 11:07:28;;;;;;;;;;;;;;;;;;5092731;28;889;-77
2022/01/26 11:09:54;;;;;;;;;;;;;;;;;;5092793;28;991;-77
2022/01/26 11:12:27;;;;;;;;;;;;;;;;;;5091478;28;852;-75
2022/01/26 11:14:57;;;;;;;;;;;;;;;;;;5092492;28;837;-76
2022/01/26 11:17:32;;;;;;;;;;;;;;;;;;5093007;28;1906;-75
2022/01/26 11:19:58;;;;;;;;;;;;;;;;;;5092176;28;840;-76
2022/01/26 11:22:28;;;;;;;;;;;;;;;;;;5092854;28;816;-77
2022/01/26 11:24:55;;;;;;;;;;;;;;;;;;5091917;28;1031;-75
2022/01/26 11:27:21;;;;;;;;;;;;;;;;;;5092383;28;984;-76
2022/01/26 11:29:50;;;;;;;;;;;;;;;;;;5092376;28;935;-76
2022/01/26 11:32:25;;;;;;;;;;;;;;;;;;5073460;28;1563;-77
2022/01/26 11:34:52;;;;;;;;;;;;;;;;;;5092135;28;825;-77
2022/01/26 11:37:24;;;;;;;;;;;;;;;;;;5092005;28;1914;-78
2022/01/26 11:45:18;;;;;;;;;;;;;;;;;;5075759;28;719;-80
2022/01/26 11:48:01;;;;;;;;;;;;;;;;;;5091650;28;793;-76
2022/01/26 11:50:28;;;;;;;;;;;;;;;;;;5090425;28;864;-75
2022/01/26 11:53:05;;;;;;;;;;;;;;;;;;5091735;28;991;-75
2022/01/26 11:55:35;;;;;;;;;;;;;;;;;;5092597;28;904;-75
2022/01/26 11:58:11;;;;;;;;;;;;;;;;;;5074078;28;1410;-75
2022/01/26 12:01:11;;;;;;;;;;;;;;;;;;5073983;28;1383;-75
2022/01/26 12:03:34;;;;;;;;;;;;;;;;;;5091150;28;1855;-75
2022/01/26 12:06:00;;;;;;;;;;;;;;;;;;5094426;28;933;-75
2022/01/26 12:08:28;;;;;;;;;;;;;;;;;;5095492;28;860;-74
2022/01/26 12:10:54;;;;;;;;;;;;;;;;;;5096205;28;848;-75
2022/01/26 12:13:24;;;;;;;;;;;;;;;;;;5096264;28;899;-75
2022/01/26 12:16:01;;;;;;;;;;;;;;;;;;5096171;28;1961;-74
2022/01/26 12:34:39;;;;;;;;;;;;;;;;;;5076930;28;1224;-76
2022/01/26 12:45:21;;;;;;;;;;;;;;;;;;5075206;28;935;-76
2022/01/26 12:47:47;;;;;;;;;;;;;;;;;;5056729;28;1603;-78
2022/01/26 12:50:12;;;;;;;;;;;;;;;;;;5057003;28;909;-77
2022/01/26 12:52:38;;;;;;;;;;;;;;;;;;5056282;28;1019;-77
2022/01/26 12:55:04;;;;;;;;;;;;;;;;;;5074203;28;825;-77
2022/01/26 12:57:29;;;;;;;;;;;;;;;;;;5074474;28;2286;-77
2022/01/26 13:00:02;;;;;;;;;;;;;;;;;;5056442;28;1268;-77
2022/01/26 13:02:28;;;;;;;;;;;;;;;;;;5074663;28;910;-77
2022/01/26 13:05:00;;;;;;;;;;;;;;;;;;5074478;28;896;-73
2022/01/26 13:07:26;;;;;;;;;;;;;;;;;;5074102;28;820;-73
2022/01/26 13:09:51;;;;;;;;;;;;;;;;;;5073293;28;852;-73
2022/01/26 13:12:19;;;;;;;;;;;;;;;;;;5073508;28;789;-73
2022/01/26 13:14:54;;;;;;;;;;;;;;;;;;5073506;28;841;-73
2022/01/26 13:17:34;;;;;;;;;;;;;;;;;;5072909;28;1911;-73
2022/01/26 13:26:15;;;;;;;;;;;;;;;;;;5073291;28;1050;-73
2022/01/26 13:31:48;;;;;;;;;;;;;;;;;;5073248;28;1199;-73
2022/01/26 13:34:40;;;;;;;;;;;;;;;;;;5066930;28;1402;-73
2022/01/26 13:37:18;;;;;;;;;;;;;;;;;;5073007;28;1965;-73
2022/01/26 13:39:54;;;;;;;;;;;;;;;;;;5073567;28;868;-73
2022/01/26 13:50:27;;;;;;;;;;;;;;;;;;5073213;28;897;-74
2022/01/26 13:58:06;;;;;;;;;;;;;;;;;;5072112;28;2012;-78
2022/01/26 14:00:38;;;;;;;;;;;;;;;;;;5073663;28;911;-77
2022/01/26 14:03:06;;;;;;;;;;;;;;;;;;5071964;28;1231;-75
2022/01/26 14:05:31;;;;;;;;;;;;;;;;;;5073566;28;852;-76
2022/01/26 14:07:57;;;;;;;;;;;;;;;;;;5072960;28;895;-77
2022/01/26 14:10:22;;;;;;;;;;;;;;;;;;5073063;28;845;-76
2022/01/26 14:12:49;;;;;;;;;;;;;;;;;;5071470;28;852;-76
2022/01/26 14:15:21;;;;;;;;;;;;;;;;;;5073321;28;928;-76
2022/01/26 14:23:17;;;;;;;;;;;;;;;;;;5051193;28;1200;-77
2022/01/26 14:25:45;;;;;;;;;;;;;;;;;;5070680;28;1182;-77
2022/01/26 14:28:13;;;;;;;;;;;;;;;;;;5072241;28;786;-77
2022/01/26 14:30:56;;;;;;;;;;;;;;;;;;5072443;28;844;-73
2022/01/26 14:36:25;;;;;;;;;;;;;;;;;;5071068;28;1906;-73
2022/01/26 14:54:50;;;;;;;;;;;;;;;;;;5071999;28;939;-77
2022/01/26 15:29:52;;;;;;;;;;;;;;;;;;5071343;28;730;-78
2022/01/26 15:30:07;;;;;;;;;;;;;;;;;;5071994;28;635;-78
2022/01/26 15:50:59;;;;;;;;;;;;;;;;;;5095050;28;682;-73
2022/01/26 15:57:22;;;;;;;;;;;;;;;;;;5076695;28;900;-74
2022/01/26 16:07:39;;;;;;;;;;;;;;;;;;5065593;28;963;-73
2022/01/26 18:13:30;;;;;;;;;;;;;;;;;;5073059;28;1034;-71
2022/01/26 18:16:08;;;;;;;;;;;;;;;;;;5073125;28;1937;-71
2022/01/26 18:27:05;;;;;;;;;;;;;;;;;;5074075;28;1154;-71
2022/01/26 18:32:30;;;;;;;;;;;;;;;;;;5074371;28;870;-71
2022/01/26 18:51:09;;;;;;;;;;;;;;;;;;5071660;28;805;-71
2022/01/26 18:53:34;;;;;;;;;;;;;;;;;;5070949;28;876;-72
2022/01/26 18:56:00;;;;;;;;;;;;;;;;;;5052129;28;1938;-72
2022/01/26 18:58:25;;;;;;;;;;;;;;;;;;5071136;28;954;-71
2022/01/26 19:00:50;;;;;;;;;;;;;;;;;;5071621;28;876;-72
2022/01/26 19:03:15;;;;;;;;;;;;;;;;;;5071741;28;1035;-71
2022/01/26 19:05:41;;;;;;;;;;;;;;;;;;5072915;28;836;-72
2022/01/26 19:08:07;;;;;;;;;;;;;;;;;;5072284;28;1177;-72
2022/01/26 19:10:32;;;;;;;;;;;;;;;;;;5079601;28;2746;-74
2022/01/26 19:12:58;;;;;;;;;;;;;;;;;;5078789;28;3374;-72
2022/01/26 19:15:28;;;;;;;;;;;;;;;;;;5078430;28;3005;-77
2022/01/26 19:18:03;;;;;;;;;;;;;;;;;;5084044;28;2875;-77
2022/01/26 19:20:44;;;;;;;;;;;;;;;;;;5093505;28;836;-77
2022/01/26 19:26:01;;;;;;;;;;;;;;;;;;5072553;28;899;-77
2022/01/26 19:28:37;;;;;;;;;;;;;;;;;;5082401;28;2759;-77
2022/01/26 19:47:38;;;;;;;;;;;;;;;;;;5010103;28;1038;-78
2022/01/26 19:52:43;;;;;;;;;;;;;;;;;;5071450;28;675;-79
2022/01/26 19:55:08;;;;;;;;;;;;;;;;;;5077821;28;3415;-79
2022/01/26 19:57:33;;;;;;;;;;;;;;;;;;5066326;28;3280;-78
2022/01/26 19:59:59;;;;;;;;;;;;;;;;;;5083307;28;2767;-79
2022/01/26 20:02:25;;;;;;;;;;;;;;;;;;5087484;28;865;-78
2022/01/26 20:04:51;;;;;;;;;;;;;;;;;;5075904;28;3352;-79
2022/01/26 20:07:21;;;;;;;;;;;;;;;;;;5085958;28;2863;-78
2022/01/26 20:09:52;;;;;;;;;;;;;;;;;;5079651;28;2926;-79
2022/01/26 20:12:29;;;;;;;;;;;;;;;;;;5091442;28;821;-79
2022/01/26 20:14:55;;;;;;;;;;;;;;;;;;5092311;28;1187;-79
2022/01/26 20:17:20;;;;;;;;;;;;;;;;;;5094653;28;1905;-78
2022/01/26 20:19:45;;;;;;;;;;;;;;;;;;5071568;28;939;-78
2022/01/26 20:22:11;;;;;;;;;;;;;;;;;;5086156;28;3356;-78
2022/01/26 20:24:36;;;;;;;;;;;;;;;;;;5071660;28;2863;-79
2022/01/26 20:27:05;;;;;;;;;;;;;;;;;;5084980;28;2718;-79
2022/01/26 20:29:36;;;;;;;;;;;;;;;;;;5057051;28;872;-78
2022/01/26 20:32:02;;;;;;;;;;;;;;;;;;5075062;28;802;-78
2022/01/26 20:34:28;;;;;;;;;;;;;;;;;;5074972;28;1490;-78
2022/01/26 20:36:54;;;;;;;;;;;;;;;;;;5076667;28;1933;-78
2022/01/26 20:39:19;;;;;;;;;;;;;;;;;;5095450;28;832;-79
2022/01/26 20:41:45;;;;;;;;;;;;;;;;;;5091614;28;2548;-79
2022/01/26 20:44:10;;;;;;;;;;;;;;;;;;5085162;28;2957;-79
2022/01/26 20:46:35;;;;;;;;;;;;;;;;;;5074696;28;979;-78
2022/01/26 20:49:01;;;;;;;;;;;;;;;;;;5067309;28;2891;-79
2022/01/26 20:51:26;;;;;;;;;;;;;;;;;;5093636;28;841;-79
2022/01/26 20:53:51;;;;;;;;;;;;;;;;;;5090296;28;3359;-78
2022/01/26 20:56:17;;;;;;;;;;;;;;;;;;5073626;28;3006;-78
2022/01/26 20:58:46;;;;;;;;;;;;;;;;;;5074387;28;1058;-78
2022/01/26 21:01:11;;;;;;;;;;;;;;;;;;5074316;28;2804;-79
2022/01/26 21:03:37;;;;;;;;;;;;;;;;;;5075755;28;3407;-79
2022/01/26 21:06:03;;;;;;;;;;;;;;;;;;5074665;28;2603;-78
2022/01/26 21:08:28;;;;;;;;;;;;;;;;;;5074963;28;869;-79
2022/01/26 21:10:54;;;;;;;;;;;;;;;;;;5087764;28;2960;-79
2022/01/26 21:13:20;;;;;;;;;;;;;;;;;;5073961;28;920;-79
2022/01/26 21:15:45;;;;;;;;;;;;;;;;;;5076827;28;3466;-79
2022/01/26 21:18:11;;;;;;;;;;;;;;;;;;5064277;28;2958;-78
2022/01/26 21:20:37;;;;;;;;;;;;;;;;;;5076690;28;1302;-79
2022/01/26 21:23:03;;;;;;;;;;;;;;;;;;5093776;28;3016;-78
2022/01/26 21:25:28;;;;;;;;;;;;;;;;;;5100855;28;1430;-78
2022/01/26 21:27:54;;;;;;;;;;;;;;;;;;5093902;28;900;-78
2022/01/26 21:30:19;;;;;;;;;;;;;;;;;;5075272;28;943;-78
2022/01/26 21:32:45;;;;;;;;;;;;;;;;;;5074614;28;818;-78
2022/01/26 21:35:10;;;;;;;;;;;;;;;;;;5084705;28;3604;-79
2022/01/26 21:37:36;;;;;;;;;;;;;;;;;;5053795;28;1967;-79
2022/01/26 21:40:02;;;;;;;;;;;;;;;;;;5061167;28;3355;-79
2022/01/26 21:42:27;;;;;;;;;;;;;;;;;;5080763;28;3004;-78
2022/01/26 21:44:54;;;;;;;;;;;;;;;;;;5092278;28;945;-79
2022/01/26 21:47:19;;;;;;;;;;;;;;;;;;5079479;28;2851;-78
2022/01/26 21:49:47;;;;;;;;;;;;;;;;;;5072110;28;797;-79
2022/01/26 21:52:12;;;;;;;;;;;;;;;;;;5072016;28;884;-78
2022/01/26 21:54:37;;;;;;;;;;;;;;;;;;5072148;28;900;-78
2022/01/26 21:57:03;;;;;;;;;;;;;;;;;;5053799;28;1933;-78
2022/01/26 21:59:28;;;;;;;;;;;;;;;;;;5072044;28;2839;-78
2022/01/26 22:01:54;;;;;;;;;;;;;;;;;;5091782;28;913;-78
2022/01/26 22:04:19;;;;;;;;;;;;;;;;;;5091286;28;1129;-79
2022/01/26 22:06:45;;;;;;;;;;;;;;;;;;5091895;28;924;-79
2022/01/26 22:09:10;;;;;;;;;;;;;;;;;;5072965;28;1513;-78
2022/01/26 22:11:39;;;;;;;;;;;;;;;;;;5077667;28;2893;-78
2022/01/26 22:14:05;;;;;;;;;;;;;;;;;;5091441;28;1144;-79
2022/01/26 22:16:30;;;;;;;;;;;;;;;;;;5081755;28;2926;-78
2022/01/26 22:18:56;;;;;;;;;;;;;;;;;;5073537;28;1167;-78
2022/01/26 22:21:22;;;;;;;;;;;;;;;;;;5091379;28;894;-78
2022/01/26 22:23:48;;;;;;;;;;;;;;;;;;5092401;28;913;-79
2022/01/26 22:26:14;;;;;;;;;;;;;;;;;;5085555;28;1188;-79
2022/01/26 22:28:46;;;;;;;;;;;;;;;;;;5041278;28;2789;-79
2022/01/26 22:31:12;;;;;;;;;;;;;;;;;;5061443;28;3483;-78
2022/01/26 22:33:37;;;;;;;;;;;;;;;;;;5023576;28;1320651;-78
2022/01/26 22:36:03;;;;;;;;;;;;;;;;;;5071051;28;1906;-78
2022/01/26 22:38:28;;;;;;;;;;;;;;;;;;5072495;28;848;-78
2022/01/26 22:40:55;;;;;;;;;;;;;;;;;;5067875;28;3593;-78
2022/01/26 22:43:20;;;;;;;;;;;;;;;;;;5071958;28;862;-78
2022/01/26 22:45:49;;;;;;;;;;;;;;;;;;5059126;28;3320;-78
2022/01/26 22:48:20;;;;;;;;;;;;;;;;;;5052933;28;829;-78
2022/01/26 22:50:47;;;;;;;;;;;;;;;;;;5060087;28;3347;-78
2022/01/26 22:53:12;;;;;;;;;;;;;;;;;;5071658;28;2925;-79
2022/01/26 22:55:37;;;;;;;;;;;;;;;;;;5065791;28;2853;-78
2022/01/26 22:58:03;;;;;;;;;;;;;;;;;;5058667;28;3308;-78
2022/01/26 23:00:47;;;;;;;;;;;;;;;;;;5066885;28;2806;-78
2022/01/26 23:03:13;;;;;;;;;;;;;;;;;;5051904;28;904;-73
2022/01/26 23:08:22;;;;;;;;;;;;;;;;;;5059284;28;829;-74
2022/01/26 23:10:49;;;;;;;;;;;;;;;;;;5071728;28;824;-73
2022/01/26 23:13:14;;;;;;;;;;;;;;;;;;5071712;28;919;-73
2022/01/26 23:15:40;;;;;;;;;;;;;;;;;;5070258;28;790;-73
2022/01/26 23:18:05;;;;;;;;;;;;;;;;;;5056725;28;2846;-73
2022/01/26 23:20:30;;;;;;;;;;;;;;;;;;5051819;28;920;-73
2022/01/26 23:23:00;;;;;;;;;;;;;;;;;;5051807;28;860;-73
2022/01/26 23:25:32;;;;;;;;;;;;;;;;;;5058656;28;947;-74
2022/01/26 23:31:05;;;;;;;;;;;;;;;;;;5055216;28;2825;-73
